createdAt,value
2023-10-14T00:01:55.283Z,4.47
2023-10-14T00:04:22.576Z,5.00
2023-10-14T00:06:49.826Z,4.83
2023-10-14T00:09:16.942Z,4.93
2023-10-14T00:11:45.398Z,5.50
2023-10-14T00:14:12.470Z,4.83
2023-10-14T00:16:39.543Z,5.43
2023-10-14T00:19:06.729Z,4.63
2023-10-14T00:21:35.072Z,5.03
2023-10-14T00:24:02.849Z,5.00
2023-10-14T00:26:30.255Z,5.57
2023-10-14T00:28:59.465Z,5.07
2023-10-14T00:31:26.636Z,5.30
2023-10-14T00:33:54.044Z,5.87
2023-10-14T00:36:22.296Z,5.47
2023-10-14T00:38:49.722Z,5.87
2023-10-14T00:41:16.819Z,5.60
2023-10-14T00:43:43.958Z,5.30
2023-10-14T00:46:13.419Z,5.40
2023-10-14T00:48:41.192Z,5.37
2023-10-14T00:51:09.712Z,6.40
2023-10-14T00:53:37.597Z,4.97
2023-10-14T00:56:05.178Z,5.53
2023-10-14T00:58:32.414Z,5.93
2023-10-14T01:00:59.633Z,5.50
2023-10-14T01:03:29.578Z,5.10
2023-10-14T01:05:56.844Z,5.57
2023-10-14T01:08:24.878Z,5.10
2023-10-14T01:10:54.342Z,5.23
2023-10-14T01:13:21.605Z,5.53
2023-10-14T01:15:48.870Z,5.90
2023-10-14T01:18:16.033Z,5.63
2023-10-14T01:20:45.058Z,5.70
2023-10-14T01:23:13.601Z,6.40
2023-10-14T01:25:40.893Z,5.53
2023-10-14T01:28:08.211Z,5.70
2023-10-14T01:30:35.427Z,6.00
2023-10-14T01:33:02.533Z,6.40
2023-10-14T01:35:29.763Z,5.43
2023-10-14T01:37:58.179Z,5.20
2023-10-14T01:40:28.155Z,6.30
2023-10-14T01:42:56.333Z,6.23
2023-10-14T01:45:24.048Z,6.33
2023-10-14T01:47:51.198Z,5.87
2023-10-14T01:50:18.256Z,6.00
2023-10-14T01:52:45.384Z,6.27
2023-10-14T01:55:12.652Z,5.27
2023-10-14T01:57:41.151Z,5.67
2023-10-14T02:00:09.201Z,5.50
2023-10-14T02:02:36.341Z,5.53
2023-10-14T02:05:03.814Z,5.93
2023-10-14T02:07:30.967Z,5.50
2023-10-14T02:09:58.144Z,6.07
2023-10-14T02:12:25.323Z,6.03
2023-10-14T02:14:53.939Z,5.73
2023-10-14T02:17:21.232Z,6.43
2023-10-14T02:19:48.347Z,6.20
2023-10-14T02:22:15.496Z,5.50
2023-10-14T02:24:43.055Z,5.90
2023-10-14T02:27:10.255Z,5.10
2023-10-14T02:29:38.026Z,5.77
2023-10-14T02:32:06.881Z,5.67
2023-10-14T02:34:34.009Z,6.03
2023-10-14T02:37:01.133Z,5.10
2023-10-14T02:39:28.488Z,5.50
2023-10-14T02:41:56.315Z,5.83
2023-10-14T02:44:23.403Z,6.27
2023-10-14T02:46:50.519Z,5.97
2023-10-14T02:49:19.010Z,5.70
2023-10-14T02:51:46.986Z,5.77
2023-10-14T02:54:15.795Z,5.93
2023-10-14T02:56:43.223Z,6.00
2023-10-14T02:59:10.344Z,5.40
2023-10-14T03:01:41.252Z,5.67
2023-10-14T03:04:08.769Z,5.80
2023-10-14T03:06:37.250Z,5.87
2023-10-14T03:09:04.641Z,6.20
2023-10-14T03:11:31.686Z,5.50
2023-10-14T03:13:58.867Z,6.70
2023-10-14T03:16:25.993Z,5.67
2023-10-14T03:18:53.067Z,5.80
2023-10-14T03:21:20.164Z,6.17
2023-10-14T03:23:48.583Z,5.83
2023-10-14T03:26:15.642Z,6.20
2023-10-14T03:28:43.234Z,5.90
2023-10-14T03:31:10.490Z,5.83
2023-10-14T03:33:37.762Z,6.10
2023-10-14T03:36:05.513Z,6.63
2023-10-14T03:38:33.551Z,5.93
2023-10-14T03:41:03.227Z,5.47
2023-10-14T03:43:31.841Z,6.17
2023-10-14T03:45:59.017Z,5.23
2023-10-14T03:48:26.044Z,6.37
2023-10-14T03:50:53.104Z,5.70
2023-10-14T03:53:20.188Z,6.17
2023-10-14T03:55:47.219Z,6.33
2023-10-14T03:58:15.735Z,5.57
2023-10-14T04:00:42.847Z,6.73
2023-10-14T04:03:10.833Z,6.03
2023-10-14T04:05:38.320Z,5.67
2023-10-14T04:08:06.270Z,6.67
2023-10-14T04:10:33.355Z,6.90
2023-10-14T04:13:00.464Z,5.97
2023-10-14T04:15:29.043Z,6.53
2023-10-14T04:17:56.523Z,6.33
2023-10-14T04:20:23.963Z,6.57
2023-10-14T04:22:51.102Z,6.30
2023-10-14T04:25:18.200Z,5.80
2023-10-14T04:27:47.612Z,6.43
2023-10-14T04:30:15.365Z,6.40
2023-10-14T04:32:43.927Z,6.63
2023-10-14T04:35:12.374Z,5.97
2023-10-14T04:37:40.674Z,6.27
2023-10-14T04:40:08.792Z,5.93
2023-10-14T04:42:35.924Z,7.10
2023-10-14T04:45:07.799Z,6.80
2023-10-14T04:47:35.171Z,6.30
2023-10-14T04:50:07.643Z,6.33
2023-10-14T04:52:34.988Z,6.57
2023-10-14T04:55:02.255Z,6.23
2023-10-14T04:57:29.406Z,5.63
2023-10-14T04:59:56.613Z,6.50
2023-10-14T05:02:24.000Z,6.40
2023-10-14T05:04:52.051Z,7.00
2023-10-14T05:07:20.828Z,6.43
2023-10-14T05:09:48.754Z,6.57
2023-10-14T05:12:16.409Z,6.47
2023-10-14T05:14:43.496Z,6.50
2023-10-14T05:17:10.727Z,6.80
2023-10-14T05:19:38.056Z,7.30
2023-10-14T05:22:05.154Z,6.67
2023-10-14T05:24:33.567Z,6.90
2023-10-14T05:27:00.737Z,6.50
2023-10-14T05:29:29.052Z,6.57
2023-10-14T05:31:57.247Z,7.67
2023-10-14T05:34:24.356Z,6.60
2023-10-14T05:36:51.816Z,6.27
2023-10-14T05:39:18.949Z,6.20
2023-10-14T05:41:47.367Z,6.90
2023-10-14T05:44:14.461Z,6.30
2023-10-14T05:46:41.669Z,6.93
2023-10-14T05:49:09.368Z,6.90
2023-10-14T05:51:36.791Z,6.97
2023-10-14T05:54:04.150Z,7.23
2023-10-14T05:56:31.298Z,7.07
2023-10-14T05:58:59.760Z,6.50
2023-10-14T06:01:26.976Z,6.73
2023-10-14T06:03:54.167Z,6.63
2023-10-14T06:06:21.292Z,6.53
2023-10-14T06:08:48.826Z,6.90
2023-10-14T06:11:16.616Z,6.50
2023-10-14T06:13:44.061Z,6.80
2023-10-14T06:16:14.173Z,7.63
2023-10-14T06:18:42.702Z,7.40
2023-10-14T06:21:09.941Z,6.67
2023-10-14T06:23:37.072Z,6.60
2023-10-14T06:26:04.243Z,6.80
2023-10-14T06:28:31.343Z,7.00
2023-10-14T06:30:58.574Z,7.43
2023-10-14T06:33:27.060Z,8.10
2023-10-14T06:35:54.526Z,8.37
2023-10-14T06:38:21.626Z,7.93
2023-10-14T06:40:48.800Z,7.57
2023-10-14T06:43:15.829Z,6.50
2023-10-14T06:45:42.856Z,6.63
2023-10-14T06:48:09.846Z,6.33
2023-10-14T06:50:38.647Z,6.67
2023-10-14T06:53:05.855Z,6.80
2023-10-14T06:55:32.953Z,7.00
2023-10-14T06:58:00.137Z,7.27
2023-10-14T07:00:27.251Z,6.47
2023-10-14T07:02:54.552Z,6.23
2023-10-14T07:05:21.851Z,6.63
2023-10-14T07:07:50.371Z,6.43
2023-10-14T07:10:17.774Z,6.27
2023-10-14T07:12:45.034Z,6.47
2023-10-14T07:15:12.117Z,7.40
2023-10-14T07:17:40.157Z,6.10
2023-10-14T07:20:09.295Z,6.77
2023-10-14T07:22:36.433Z,6.67
2023-10-14T07:25:05.503Z,6.63
2023-10-14T07:27:32.666Z,6.23
2023-10-14T07:29:59.886Z,6.10
2023-10-14T07:32:27.105Z,6.47
2023-10-14T07:34:54.246Z,6.60
2023-10-14T07:37:21.556Z,6.57
2023-10-14T07:39:48.842Z,7.20
2023-10-14T07:42:17.254Z,6.60
2023-10-14T07:44:44.339Z,6.67
2023-10-14T07:47:11.516Z,6.53
2023-10-14T07:49:38.638Z,7.07
2023-10-14T07:52:05.794Z,6.80
2023-10-14T07:54:32.900Z,6.77
2023-10-14T07:56:59.979Z,7.20
2023-10-14T07:59:31.431Z,6.90
2023-10-14T08:01:58.856Z,6.07
2023-10-14T08:04:26.230Z,6.33
2023-10-14T08:06:53.451Z,5.90
2023-10-14T08:09:20.608Z,6.70
2023-10-14T08:11:47.723Z,7.00
2023-10-14T08:14:14.746Z,6.47
2023-10-14T08:16:43.385Z,5.10
2023-10-14T08:19:10.578Z,5.40
2023-10-14T08:21:37.732Z,5.77
2023-10-14T08:24:05.094Z,6.10
2023-10-14T08:26:32.765Z,6.50
2023-10-14T08:28:59.895Z,6.07
2023-10-14T08:31:27.887Z,5.87
2023-10-14T08:34:05.326Z,5.40
2023-10-14T08:36:32.384Z,4.97
2023-10-14T08:38:59.611Z,5.23
2023-10-14T08:41:27.840Z,5.90
2023-10-14T08:43:57.044Z,6.10
2023-10-14T08:46:26.275Z,5.50
2023-10-14T08:48:53.831Z,5.47
2023-10-14T08:51:25.287Z,5.00
2023-10-14T08:53:56.521Z,5.80
2023-10-14T08:56:23.933Z,5.33
2023-10-14T08:58:51.147Z,5.83
2023-10-14T09:01:20.669Z,5.93
2023-10-14T09:03:52.989Z,5.40
2023-10-14T09:06:27.693Z,5.43
2023-10-14T09:08:56.737Z,5.50
2023-10-14T09:11:40.373Z,5.47
2023-10-14T09:14:12.866Z,6.03
2023-10-14T09:16:45.495Z,5.70
2023-10-14T09:19:12.690Z,6.00
2023-10-14T09:21:45.063Z,5.60
2023-10-14T09:24:12.386Z,5.90
2023-10-14T09:26:40.075Z,6.20
2023-10-14T09:29:07.619Z,5.33
2023-10-14T09:31:38.039Z,5.37
2023-10-14T09:34:05.496Z,4.67
2023-10-14T09:36:35.977Z,4.90
2023-10-14T09:39:08.562Z,4.80
2023-10-14T09:41:35.945Z,5.07
2023-10-14T09:44:06.646Z,4.80
2023-10-14T09:46:35.557Z,4.80
2023-10-14T09:49:02.953Z,5.60
2023-10-14T09:51:32.556Z,4.80
2023-10-14T09:54:00.280Z,5.73
2023-10-14T09:56:40.491Z,5.20
2023-10-14T09:59:11.697Z,4.97
2023-10-14T10:01:38.958Z,4.80
2023-10-14T10:04:11.059Z,4.97
2023-10-14T10:06:48.259Z,5.40
2023-10-14T10:09:31.843Z,5.10
2023-10-14T10:12:01.267Z,4.77
2023-10-14T10:14:28.328Z,5.33
2023-10-14T10:16:58.748Z,4.63
2023-10-14T10:20:05.234Z,4.83
2023-10-14T10:22:40.128Z,5.97
2023-10-14T10:25:08.368Z,5.03
2023-10-14T10:27:36.663Z,5.10
2023-10-14T10:30:05.836Z,4.63
2023-10-14T10:32:33.627Z,4.90
2023-10-14T10:35:11.633Z,4.80
2023-10-14T10:37:41.968Z,4.80
2023-10-14T10:40:10.597Z,4.33
2023-10-14T10:42:40.281Z,4.60
2023-10-14T10:45:08.341Z,4.70
2023-10-14T10:47:45.049Z,4.40
2023-10-14T10:50:15.781Z,4.60
2023-10-14T10:52:43.072Z,4.60
2023-10-14T10:55:10.428Z,4.63
2023-10-14T10:57:40.316Z,4.93
2023-10-14T11:00:08.702Z,4.57
2023-10-14T11:02:35.950Z,5.03
2023-10-14T11:05:04.567Z,4.67
2023-10-14T11:07:31.586Z,3.73
2023-10-14T11:09:58.724Z,4.87
2023-10-14T11:12:25.571Z,4.87
2023-10-14T11:14:53.832Z,4.13
2023-10-14T11:19:50.183Z,4.70
2023-10-14T11:22:17.192Z,3.90
2023-10-14T11:24:44.504Z,4.40
2023-10-14T11:27:12.000Z,5.03
2023-10-14T11:29:41.862Z,4.97
2023-10-14T11:32:10.834Z,4.70
2023-10-14T11:34:38.053Z,5.27
2023-10-14T11:37:07.914Z,5.13
2023-10-14T11:39:36.181Z,4.73
2023-10-14T11:42:03.216Z,4.40
2023-10-14T11:44:30.435Z,4.57
2023-10-14T11:46:57.812Z,5.07
2023-10-14T11:49:26.752Z,4.70
2023-10-14T11:51:54.329Z,5.40
2023-10-14T11:54:21.450Z,4.83
2023-10-14T11:56:48.368Z,5.20
2023-10-14T11:59:15.271Z,4.63
2023-10-14T12:01:42.447Z,4.80
2023-10-14T12:04:09.410Z,4.93
2023-10-14T12:06:37.941Z,5.37
2023-10-14T12:09:05.492Z,4.87
2023-10-14T12:11:32.639Z,5.32
2023-10-14T12:13:59.601Z,5.20
2023-10-14T12:16:26.903Z,5.30
2023-10-14T12:18:53.908Z,5.23
2023-10-14T12:21:20.902Z,5.15
2023-10-14T12:23:49.453Z,5.43
2023-10-14T12:28:46.180Z,5.50
2023-10-14T12:31:13.298Z,5.65
2023-10-14T12:33:40.475Z,6.00
2023-10-14T12:36:08.000Z,5.23
2023-10-14T12:38:35.140Z,6.10
2023-10-14T12:41:03.708Z,5.85
2023-10-14T12:43:30.597Z,5.63
2023-10-14T12:45:58.069Z,5.75
2023-10-14T12:48:24.960Z,5.07
2023-10-14T12:50:51.863Z,5.43
2023-10-14T12:53:18.958Z,5.57
2023-10-14T12:55:45.831Z,5.82
2023-10-14T12:58:14.484Z,6.10
2023-10-14T13:00:41.644Z,5.90
2023-10-14T13:03:08.650Z,5.80
2023-10-14T13:05:35.787Z,6.10
2023-10-14T13:08:03.420Z,6.03
2023-10-14T13:10:30.556Z,5.63
2023-10-14T13:12:59.032Z,5.93
2023-10-14T13:15:29.622Z,5.60
2023-10-14T13:17:57.989Z,5.13
2023-10-14T13:20:26.104Z,5.15
2023-10-14T13:22:54.033Z,6.38
2023-10-14T13:25:20.990Z,5.07
2023-10-14T13:27:48.090Z,5.38
2023-10-14T13:30:15.057Z,4.75
2023-10-14T13:32:43.648Z,5.47
2023-10-14T13:35:10.762Z,5.88
2023-10-14T13:37:37.878Z,6.40
2023-10-14T13:40:05.965Z,5.80
2023-10-14T13:42:32.955Z,6.40
2023-10-14T13:44:59.931Z,6.40
2023-10-14T13:47:26.867Z,5.30
2023-10-14T13:49:55.433Z,6.15
2023-10-14T13:52:22.457Z,5.75
2023-10-14T13:54:49.416Z,5.28
2023-10-14T13:57:16.493Z,5.97
2023-10-14T13:59:43.497Z,5.35
2023-10-14T14:02:10.428Z,5.30
2023-10-14T14:04:37.515Z,5.93
2023-10-14T14:07:05.892Z,5.85
2023-10-14T14:09:32.789Z,5.15
2023-10-14T14:11:59.873Z,6.15
2023-10-14T14:14:27.002Z,5.18
2023-10-14T14:16:54.345Z,5.85
2023-10-14T14:19:22.434Z,4.95
2023-10-14T14:21:49.839Z,5.60
2023-10-14T14:24:18.125Z,5.43
2023-10-14T14:26:45.149Z,5.68
2023-10-14T14:29:12.079Z,5.78
2023-10-14T14:31:39.103Z,6.05
2023-10-14T14:34:06.287Z,6.53
2023-10-14T14:36:33.284Z,6.20
2023-10-14T14:39:00.182Z,5.70
2023-10-14T14:41:28.550Z,5.28
2023-10-14T14:43:55.469Z,6.00
2023-10-14T14:46:22.588Z,5.60
2023-10-14T14:48:49.688Z,5.07
2023-10-14T14:51:16.937Z,6.30
2023-10-14T14:53:43.819Z,5.65
2023-10-14T14:56:11.384Z,5.60
2023-10-14T14:58:39.870Z,5.97
2023-10-14T15:01:15.084Z,6.15
2023-10-14T15:03:42.164Z,6.28
2023-10-14T15:06:09.238Z,6.45
2023-10-14T15:08:36.303Z,6.32
2023-10-14T15:11:03.265Z,5.60
2023-10-14T15:13:30.282Z,6.57
2023-10-14T15:15:58.727Z,6.18
2023-10-14T15:18:25.838Z,5.68
2023-10-14T15:20:52.768Z,7.10
2023-10-14T15:23:19.894Z,7.25
2023-10-14T15:25:46.923Z,6.53
2023-10-14T15:28:13.930Z,7.35
2023-10-14T15:30:40.986Z,7.43
2023-10-14T15:33:09.471Z,6.90
2023-10-14T15:35:36.900Z,7.18
2023-10-14T15:38:04.820Z,10.25
2023-10-14T15:40:33.876Z,10.93
2023-10-14T15:43:00.818Z,12.00
2023-10-14T15:45:28.180Z,11.38
2023-10-14T15:47:57.476Z,11.77
2023-10-14T15:50:26.926Z,11.00
2023-10-14T15:52:55.587Z,10.50
2023-10-14T15:55:24.329Z,9.50
2023-10-14T15:57:52.272Z,8.48
2023-10-14T16:00:19.889Z,8.83
2023-10-14T16:02:46.881Z,8.07
2023-10-14T16:05:13.930Z,15.40
2023-10-14T16:07:42.351Z,11.27
2023-10-14T16:10:09.995Z,12.52
2023-10-14T16:12:36.888Z,11.40
2023-10-14T16:15:04.971Z,14.20
2023-10-14T16:17:31.924Z,10.45
2023-10-14T16:19:58.863Z,10.20
2023-10-14T16:22:26.062Z,13.77
2023-10-14T16:24:54.414Z,13.53
2023-10-14T16:27:21.354Z,8.87
2023-10-14T16:29:48.421Z,9.80
2023-10-14T16:32:15.434Z,10.43
2023-10-14T16:34:42.391Z,16.50
2023-10-14T16:37:09.534Z,18.90
2023-10-14T16:39:36.566Z,21.10
2023-10-14T16:42:04.942Z,13.73
2023-10-14T16:44:32.004Z,11.63
2023-10-14T16:46:59.091Z,8.10
2023-10-14T16:49:30.348Z,7.70
2023-10-14T16:51:57.602Z,8.00
2023-10-14T16:54:24.650Z,8.00
2023-10-14T16:56:51.729Z,8.80
2023-10-14T16:59:20.434Z,8.50
2023-10-14T17:01:47.773Z,14.97
2023-10-14T17:04:14.751Z,16.93
2023-10-14T17:06:41.836Z,11.33
2023-10-14T17:09:08.972Z,10.20
2023-10-14T17:11:35.826Z,9.73
2023-10-14T17:14:02.998Z,9.80
2023-10-14T17:16:31.357Z,10.07
2023-10-14T17:18:58.375Z,10.13
2023-10-14T17:21:25.428Z,9.47
2023-10-14T17:23:52.353Z,10.30
2023-10-14T17:26:19.256Z,11.03
2023-10-14T17:28:47.035Z,10.27
2023-10-14T17:31:14.081Z,8.77
2023-10-14T17:33:42.440Z,9.33
2023-10-14T17:36:11.163Z,9.83
2023-10-14T17:38:38.232Z,9.50
2023-10-14T17:41:05.088Z,9.30
2023-10-14T17:43:32.160Z,10.00
2023-10-14T17:45:59.100Z,9.80
2023-10-14T17:48:26.003Z,9.37
2023-10-14T17:50:54.360Z,8.87
2023-10-14T17:53:21.281Z,8.90
2023-10-14T17:55:48.177Z,8.40
2023-10-14T17:58:16.434Z,9.00
2023-10-14T18:00:43.868Z,8.50
2023-10-14T18:03:11.606Z,9.33
2023-10-14T18:05:41.392Z,9.13
2023-10-14T18:08:09.688Z,9.80
2023-10-14T18:10:37.371Z,9.67
2023-10-14T18:13:05.448Z,11.33
2023-10-14T18:15:32.599Z,10.23
2023-10-14T18:18:00.329Z,10.00
2023-10-14T18:20:27.469Z,9.23
2023-10-14T18:22:55.537Z,9.17
2023-10-14T18:25:26.022Z,8.77
2023-10-14T18:27:53.106Z,7.00
2023-10-14T18:30:20.473Z,7.90
2023-10-14T18:32:48.304Z,7.70
2023-10-14T18:35:16.003Z,7.97
2023-10-14T18:37:44.247Z,7.17
2023-10-14T18:40:12.602Z,5.93
2023-10-14T18:42:42.046Z,6.43
2023-10-14T18:45:10.205Z,5.90
2023-10-14T18:47:37.535Z,6.13
2023-10-14T18:50:05.440Z,7.03
2023-10-14T18:52:32.545Z,6.93
2023-10-14T18:54:59.642Z,6.60
2023-10-14T18:57:27.043Z,5.70
2023-10-14T18:59:55.436Z,6.10
2023-10-14T19:02:23.928Z,6.80
2023-10-14T19:04:51.124Z,16.60
2023-10-14T19:07:18.207Z,30.73
2023-10-14T19:09:45.310Z,18.40
2023-10-14T19:12:12.350Z,15.27
2023-10-14T19:14:48.508Z,13.10
2023-10-14T19:17:17.695Z,8.97
2023-10-14T19:19:44.982Z,7.93
2023-10-14T19:22:12.115Z,7.93
2023-10-14T19:24:39.200Z,9.30
2023-10-14T19:27:06.280Z,7.03
2023-10-14T19:29:33.346Z,8.20
2023-10-14T19:32:00.511Z,7.67
2023-10-14T19:34:29.016Z,7.47
2023-10-14T19:36:56.127Z,7.93
2023-10-14T19:39:23.540Z,8.30
2023-10-14T19:41:50.975Z,8.27
2023-10-14T19:44:18.109Z,8.90
2023-10-14T19:46:45.208Z,8.50
2023-10-14T19:49:12.707Z,8.90
2023-10-14T19:51:41.293Z,9.73
2023-10-14T19:54:08.403Z,9.60
2023-10-14T19:56:35.447Z,10.10
2023-10-14T19:59:02.542Z,10.47
2023-10-14T20:01:29.774Z,10.43
2023-10-14T20:03:57.055Z,9.57
2023-10-14T20:06:24.382Z,8.20
2023-10-14T20:08:52.726Z,6.27
2023-10-14T20:11:19.834Z,5.30
2023-10-14T20:13:47.487Z,4.33
2023-10-14T20:16:14.928Z,2.93
2023-10-14T20:18:42.068Z,2.60
2023-10-14T20:21:09.233Z,1.90
2023-10-14T20:23:36.417Z,1.97
2023-10-14T20:26:06.075Z,1.40
2023-10-14T20:28:33.197Z,1.20
2023-10-14T20:31:00.320Z,1.10
2023-10-14T20:33:27.791Z,0.87
2023-10-14T20:35:55.233Z,1.27
2023-10-14T20:38:22.395Z,1.00
2023-10-14T20:40:49.577Z,1.00
2023-10-14T20:43:18.154Z,0.90
2023-10-14T20:45:45.429Z,1.20
2023-10-14T20:48:12.859Z,0.97
2023-10-14T20:50:40.340Z,1.30
2023-10-14T20:53:08.105Z,1.47
2023-10-14T20:55:36.091Z,1.60
2023-10-14T20:58:05.494Z,1.60
2023-10-14T21:00:35.378Z,1.33
2023-10-14T21:03:05.227Z,1.23
2023-10-14T21:05:32.343Z,0.90
2023-10-14T21:07:59.634Z,0.63
2023-10-14T21:10:29.171Z,0.60
2023-10-14T21:12:56.289Z,1.00
2023-10-14T21:15:23.436Z,0.63
2023-10-14T21:17:51.856Z,0.80
2023-10-14T21:20:18.914Z,0.63
2023-10-14T21:22:46.201Z,0.80
2023-10-14T21:25:13.666Z,0.60
2023-10-14T21:27:41.411Z,0.70
2023-10-14T21:30:09.976Z,0.80
2023-10-14T21:32:37.439Z,0.60
2023-10-14T21:35:06.678Z,0.67
2023-10-14T21:37:33.768Z,0.70
2023-10-14T21:40:01.704Z,0.60
2023-10-14T21:42:30.196Z,0.60
2023-10-14T21:44:57.818Z,0.63
2023-10-14T21:47:25.096Z,0.50
2023-10-14T21:49:52.407Z,0.73
2023-10-14T21:52:21.344Z,0.60
2023-10-14T21:54:48.997Z,0.53
2023-10-14T21:57:16.622Z,0.50
2023-10-14T21:59:44.521Z,0.67
2023-10-14T22:02:12.168Z,0.60
2023-10-14T22:04:39.943Z,0.50
2023-10-14T22:07:07.625Z,0.80
2023-10-14T22:09:36.638Z,0.90
2023-10-14T22:12:05.305Z,0.60
2023-10-14T22:14:32.910Z,0.70
2023-10-14T22:17:00.546Z,0.60
2023-10-14T22:19:28.541Z,0.70
2023-10-14T22:21:56.236Z,0.60
2023-10-14T22:24:24.033Z,0.67
2023-10-14T22:26:53.264Z,0.70
2023-10-14T22:29:20.980Z,0.70
2023-10-14T22:31:48.333Z,0.70
2023-10-14T22:34:15.476Z,0.63
2023-10-14T22:36:42.548Z,0.60
2023-10-14T22:39:09.743Z,0.70
2023-10-14T22:41:36.820Z,0.57
2023-10-14T22:44:05.836Z,0.60
2023-10-14T22:46:33.090Z,0.90
2023-10-14T22:49:00.302Z,0.93
2023-10-14T22:51:27.374Z,0.73
2023-10-14T22:53:54.526Z,0.90
2023-10-14T22:56:21.632Z,1.27
2023-10-14T22:58:48.861Z,0.90
2023-10-14T23:01:18.336Z,1.67
2023-10-14T23:03:46.138Z,0.73
2023-10-14T23:06:19.414Z,1.03
2023-10-14T23:08:46.600Z,0.60
2023-10-14T23:11:13.747Z,1.00
2023-10-14T23:13:40.847Z,0.80
2023-10-14T23:16:08.054Z,0.83
2023-10-14T23:18:36.470Z,0.80
2023-10-14T23:21:03.716Z,0.80
2023-10-14T23:23:30.839Z,1.00
2023-10-14T23:25:57.967Z,0.80
2023-10-14T23:28:25.152Z,0.80
2023-10-14T23:30:52.376Z,0.90
2023-10-14T23:33:19.599Z,1.07
2023-10-14T23:35:48.220Z,0.80
2023-10-14T23:38:15.364Z,1.00
2023-10-14T23:40:42.520Z,0.80
2023-10-14T23:43:09.671Z,1.10
2023-10-14T23:45:36.980Z,1.20
2023-10-14T23:48:04.910Z,1.00
2023-10-14T23:50:32.581Z,1.10
2023-10-14T23:53:01.005Z,0.90
2023-10-14T23:55:28.470Z,0.70
2023-10-14T23:57:55.802Z,1.33
